sensor_id;sensor_type;location;lat;lon;timestamp;pressure;altitude;pressure_sealevel;temperature;humidity
72226;BME280;60130;52.250;5.048;2023-03-26T00:00:00;392.7;;;8.7;0.0
72226;BME280;60130;52.250;5.048;2023-03-26T00:05:00;392.7;;;8.7;0.0
72226;BME280;60130;52.250;5.048;2023-03-26T00:10:00;392.7;;;8.7;0.0
72226;BME280;60130;52.250;5.048;2023-03-26T00:15:00;392.8;;;8.8;0.0
72226;BME280;60130;52.250;5.048;2023-03-26T00:20:00;392.8;;;8.8;0.0
72226;BME280;60130;52.250;5.048;2023-03-26T00:25:00;392.7;;;8.7;0.0
72226;BME280;60130;52.250;5.048;2023-03-26T00:30:00;392.8;;;8.8;0.0
72226;BME280;60130;52.250;5.048;2023-03-26T00:35:00;392.8;;;8.7;0.0
72226;BME280;60130;52.250;5.048;2023-03-26T00:40:00;392.6;;;8.6;0.0
72226;BME280;60130;52.250;5.048;2023-03-26T00:45:00;392.6;;;8.5;0.0
72226;BME280;60130;52.250;5.048;2023-03-26T00:50:00;392.5;;;8.4;0.0
72226;BME280;60130;52.250;5.048;2023-03-26T00:55:00;392.4;;;8.2;0.0
72226;BME280;60130;52.250;5.048;2023-03-26T01:00:00;392.4;;;8.2;0.0
72226;BME280;60130;52.250;5.048;2023-03-26T01:10:00;392.3;;;8.1;0.0
72226;BME280;60130;52.250;5.048;2023-03-26T01:15:01;392.2;;;8.0;0.0
72226;BME280;60130;52.250;5.048;2023-03-26T01:20:05;392.3;;;8.1;0.0
72226;BME280;60130;52.250;5.048;2023-03-26T01:25:00;392.1;;;7.8;0.0
72226;BME280;60130;52.250;5.048;2023-03-26T01:30:05;392.1;;;7.8;0.0
72226;BME280;60130;52.250;5.048;2023-03-26T01:35:09;392.1;;;7.7;0.0
72226;BME280;60130;52.250;5.048;2023-03-26T01:40:03;392.0;;;7.7;0.0
72226;BME280;60130;52.250;5.048;2023-03-26T01:45:08;391.8;;;7.4;0.0
72226;BME280;60130;52.250;5.048;2023-03-26T01:50:00;391.7;;;7.2;0.0
72226;BME280;60130;52.250;5.048;2023-03-26T01:55:00;391.6;;;7.1;0.0
72226;BME280;60130;52.250;5.048;2023-03-26T02:00:07;391.6;;;7.1;0.0
72226;BME280;60130;52.250;5.048;2023-03-26T02:05:06;391.7;;;7.2;0.0
72226;BME280;60130;52.250;5.048;2023-03-26T02:10:05;391.7;;;7.3;0.0
72226;BME280;60130;52.250;5.048;2023-03-26T02:15:01;391.7;;;7.3;0.0
72226;BME280;60130;52.250;5.048;2023-03-26T02:20:00;391.8;;;7.3;0.0
72226;BME280;60130;52.250;5.048;2023-03-26T02:25:00;391.9;;;7.5;0.0
72226;BME280;60130;52.250;5.048;2023-03-26T02:30:00;392.0;;;7.6;0.0
72226;BME280;60130;52.250;5.048;2023-03-26T02:35:00;392.1;;;7.8;0.0
72226;BME280;60130;52.250;5.048;2023-03-26T02:40:00;392.0;;;7.7;0.0
72226;BME280;60130;52.250;5.048;2023-03-26T02:45:00;392.1;;;7.9;0.0
72226;BME280;60130;52.250;5.048;2023-03-26T02:50:00;392.1;;;7.8;0.0
72226;BME280;60130;52.250;5.048;2023-03-26T02:55:00;392.3;;;8.1;0.0
72226;BME280;60130;52.250;5.048;2023-03-26T03:00:00;392.2;;;7.9;0.0
72226;BME280;60130;52.250;5.048;2023-03-26T03:05:00;392.2;;;7.9;0.0
72226;BME280;60130;52.250;5.048;2023-03-26T03:10:00;392.3;;;8.1;0.0
72226;BME280;60130;52.250;5.048;2023-03-26T03:15:00;392.4;;;8.2;0.0
72226;BME280;60130;52.250;5.048;2023-03-26T03:20:00;392.5;;;8.4;0.0
72226;BME280;60130;52.250;5.048;2023-03-26T03:25:00;392.5;;;8.4;0.0
72226;BME280;60130;52.250;5.048;2023-03-26T03:30:00;392.6;;;8.6;0.0
72226;BME280;60130;52.250;5.048;2023-03-26T03:35:00;392.7;;;8.7;0.0
72226;BME280;60130;52.250;5.048;2023-03-26T03:40:00;392.8;;;8.8;0.0
72226;BME280;60130;52.250;5.048;2023-03-26T03:45:00;392.8;;;8.8;0.0
72226;BME280;60130;52.250;5.048;2023-03-26T03:50:00;392.9;;;9.0;0.0
72226;BME280;60130;52.250;5.048;2023-03-26T03:55:00;392.9;;;8.9;0.0
72226;BME280;60130;52.250;5.048;2023-03-26T04:00:00;392.8;;;8.8;0.0
72226;BME280;60130;52.250;5.048;2023-03-26T04:05:00;392.8;;;8.8;0.0
72226;BME280;60130;52.250;5.048;2023-03-26T04:10:00;392.9;;;8.9;0.0
72226;BME280;60130;52.250;5.048;2023-03-26T04:15:00;392.9;;;8.9;0.0
72226;BME280;60130;52.250;5.048;2023-03-26T04:20:00;392.9;;;9.0;0.0
72226;BME280;60130;52.250;5.048;2023-03-26T04:25:00;393.0;;;9.1;0.0
72226;BME280;60130;52.250;5.048;2023-03-26T04:30:00;393.0;;;9.1;0.0
72226;BME280;60130;52.250;5.048;2023-03-26T04:35:01;392.9;;;8.9;0.0
72226;BME280;60130;52.250;5.048;2023-03-26T04:40:00;392.8;;;8.7;0.0
72226;BME280;60130;52.250;5.048;2023-03-26T04:45:00;392.7;;;8.6;0.0
72226;BME280;60130;52.250;5.048;2023-03-26T04:50:00;392.7;;;8.6;0.0
72226;BME280;60130;52.250;5.048;2023-03-26T04:55:00;392.8;;;8.8;0.0
72226;BME280;60130;52.250;5.048;2023-03-26T05:00:00;392.8;;;8.9;0.0
72226;BME280;60130;52.250;5.048;2023-03-26T05:05:00;392.9;;;9.0;0.0
72226;BME280;60130;52.250;5.048;2023-03-26T05:10:00;392.8;;;8.8;0.0
72226;BME280;60130;52.250;5.048;2023-03-26T05:15:00;392.8;;;8.9;0.0
72226;BME280;60130;52.250;5.048;2023-03-26T05:20:00;392.6;;;8.6;0.0
72226;BME280;60130;52.250;5.048;2023-03-26T05:25:00;392.6;;;8.5;0.0
72226;BME280;60130;52.250;5.048;2023-03-26T05:30:00;392.6;;;8.6;0.0
72226;BME280;60130;52.250;5.048;2023-03-26T05:35:00;392.6;;;8.5;0.0
72226;BME280;60130;52.250;5.048;2023-03-26T05:40:00;392.6;;;8.6;0.0
72226;BME280;60130;52.250;5.048;2023-03-26T05:45:00;392.7;;;8.7;0.0
72226;BME280;60130;52.250;5.048;2023-03-26T05:50:00;392.7;;;8.6;0.0
72226;BME280;60130;52.250;5.048;2023-03-26T05:55:00;392.8;;;8.7;0.0
72226;BME280;60130;52.250;5.048;2023-03-26T06:00:00;392.8;;;8.8;0.0
72226;BME280;60130;52.250;5.048;2023-03-26T06:05:00;392.8;;;8.8;0.0
72226;BME280;60130;52.250;5.048;2023-03-26T06:10:00;392.8;;;8.7;0.0
72226;BME280;60130;52.250;5.048;2023-03-26T06:15:00;392.7;;;8.7;0.0
72226;BME280;60130;52.250;5.048;2023-03-26T06:20:00;392.7;;;8.6;0.0
72226;BME280;60130;52.250;5.048;2023-03-26T06:25:00;392.6;;;8.6;0.0
72226;BME280;60130;52.250;5.048;2023-03-26T06:30:00;392.7;;;8.7;0.0
72226;BME280;60130;52.250;5.048;2023-03-26T06:35:00;392.7;;;8.7;0.0
72226;BME280;60130;52.250;5.048;2023-03-26T06:40:00;392.7;;;8.6;0.0
72226;BME280;60130;52.250;5.048;2023-03-26T06:45:00;392.7;;;8.6;0.0
72226;BME280;60130;52.250;5.048;2023-03-26T06:50:00;392.7;;;8.6;0.0
72226;BME280;60130;52.250;5.048;2023-03-26T06:55:00;392.7;;;8.7;0.0
72226;BME280;60130;52.250;5.048;2023-03-26T07:00:00;392.6;;;8.6;0.0
72226;BME280;60130;52.250;5.048;2023-03-26T07:05:00;392.6;;;8.5;0.0
72226;BME280;60130;52.250;5.048;2023-03-26T07:10:00;392.5;;;8.4;0.0
72226;BME280;60130;52.250;5.048;2023-03-26T07:15:02;392.5;;;8.4;0.0
72226;BME280;60130;52.250;5.048;2023-03-26T07:20:00;392.5;;;8.4;0.0
72226;BME280;60130;52.250;5.048;2023-03-26T07:25:00;392.5;;;8.3;0.0
72226;BME280;60130;52.250;5.048;2023-03-26T07:30:03;392.5;;;8.3;0.0
72226;BME280;60130;52.250;5.048;2023-03-26T07:35:05;392.5;;;8.3;0.0
72226;BME280;60130;52.250;5.048;2023-03-26T07:40:03;392.5;;;8.4;0.0
72226;BME280;60130;52.250;5.048;2023-03-26T07:45:05;392.5;;;8.4;0.0
72226;BME280;60130;52.250;5.048;2023-03-26T07:50:00;392.5;;;8.3;0.0
72226;BME280;60130;52.250;5.048;2023-03-26T07:55:00;392.5;;;8.3;0.0
72226;BME280;60130;52.250;5.048;2023-03-26T08:00:04;934.0;;;8.3;0.0
72226;BME280;60130;52.250;5.048;2023-03-26T08:05:08;888.8;;;8.3;0.0
72226;BME280;60130;52.250;5.048;2023-03-26T08:10:06;903.2;;;8.4;0.0
72226;BME280;60130;52.250;5.048;2023-03-26T08:15:05;927.9;;;8.4;0.0
72226;BME280;60130;52.250;5.048;2023-03-26T08:20:03;872.4;;;8.3;0.0
72226;BME280;60130;52.250;5.048;2023-03-26T08:25:13;856.8;;;8.4;0.0
72226;BME280;60130;52.250;5.048;2023-03-26T08:30:08;854.6;;;8.4;0.0
72226;BME280;60130;52.250;5.048;2023-03-26T08:35:00;770.6;;;8.5;0.0
72226;BME280;60130;52.250;5.048;2023-03-26T08:40:01;692.4;;;8.4;0.0
72226;BME280;60130;52.250;5.048;2023-03-26T08:50:14;660.0;;;8.4;0.0
72226;BME280;60130;52.250;5.048;2023-03-26T08:55:09;653.3;;;8.5;0.0
72226;BME280;60130;52.250;5.048;2023-03-26T09:00:14;653.1;;;8.5;0.0
72226;BME280;60130;52.250;5.048;2023-03-26T09:10:16;653.1;;;8.3;0.0
72226;BME280;60130;52.250;5.048;2023-03-26T09:25:09;653.3;;;8.5;0.0
72226;BME280;60130;52.250;5.048;2023-03-26T09:30:17;653.1;;;8.2;0.0
72226;BME280;60130;52.250;5.048;2023-03-26T09:35:12;653.0;;;8.2;0.0
72226;BME280;60130;52.250;5.048;2023-03-26T09:40:13;653.0;;;8.1;0.0
72226;BME280;60130;52.250;5.048;2023-03-26T09:50:15;653.0;;;8.1;0.0
72226;BME280;60130;52.250;5.048;2023-03-26T09:55:17;653.0;;;8.2;0.0
72226;BME280;60130;52.250;5.048;2023-03-26T10:00:07;653.0;;;8.1;0.0
72226;BME280;60130;52.250;5.048;2023-03-26T10:05:07;652.9;;;8.0;0.0
72226;BME280;60130;52.250;5.048;2023-03-26T10:10:03;653.0;;;8.1;0.0
72226;BME280;60130;52.250;5.048;2023-03-26T10:15:10;653.0;;;8.1;0.0
72226;BME280;60130;52.250;5.048;2023-03-26T10:20:10;653.0;;;8.1;0.0
72226;BME280;60130;52.250;5.048;2023-03-26T10:35:05;660.9;;;8.1;0.0
72226;BME280;60130;52.250;5.048;2023-03-26T10:40:15;652.9;;;8.1;0.0
72226;BME280;60130;52.250;5.048;2023-03-26T10:45:12;856.8;;;8.2;0.0
72226;BME280;60130;52.250;5.048;2023-03-26T10:50:14;721.7;;;8.5;0.0
72226;BME280;60130;52.250;5.048;2023-03-26T10:55:08;670.1;;;8.5;0.0
72226;BME280;60130;52.250;5.048;2023-03-26T11:00:12;654.4;;;8.4;0.0
72226;BME280;60130;52.250;5.048;2023-03-26T11:05:18;653.2;;;8.5;0.0
72226;BME280;60130;52.250;5.048;2023-03-26T11:10:03;653.3;;;8.5;0.0
72226;BME280;60130;52.250;5.048;2023-03-26T11:15:11;653.5;;;8.7;0.0
72226;BME280;60130;52.250;5.048;2023-03-26T11:20:04;653.6;;;8.7;0.0
72226;BME280;60130;52.250;5.048;2023-03-26T11:30:05;654.2;;;9.2;0.0
72226;BME280;60130;52.250;5.048;2023-03-26T11:35:04;654.2;;;9.3;0.0
72226;BME280;60130;52.250;5.048;2023-03-26T11:40:02;654.2;;;9.3;0.0
72226;BME280;60130;52.250;5.048;2023-03-26T11:45:02;654.4;;;9.5;0.0
72226;BME280;60130;52.250;5.048;2023-03-26T11:50:01;654.6;;;9.7;0.0
72226;BME280;60130;52.250;5.048;2023-03-26T11:55:00;674.1;;;9.7;0.0
72226;BME280;60130;52.250;5.048;2023-03-26T12:00:02;658.4;;;9.7;0.0
72226;BME280;60130;52.250;5.048;2023-03-26T12:05:12;654.4;;;9.7;0.0
72226;BME280;60130;52.250;5.048;2023-03-26T12:10:02;654.5;;;9.8;0.0
72226;BME280;60130;52.250;5.048;2023-03-26T12:15:00;654.8;;;9.9;0.0
72226;BME280;60130;52.250;5.048;2023-03-26T12:20:01;654.9;;;10.1;0.0
72226;BME280;60130;52.250;5.048;2023-03-26T12:25:02;655.1;;;10.3;0.0
72226;BME280;60130;52.250;5.048;2023-03-26T12:30:09;702.2;;;10.2;0.0
72226;BME280;60130;52.250;5.048;2023-03-26T12:35:04;672.8;;;9.9;0.0
72226;BME280;60130;52.250;5.048;2023-03-26T12:40:06;660.5;;;9.7;0.0
72226;BME280;60130;52.250;5.048;2023-03-26T12:45:00;654.5;;;9.5;0.0
72226;BME280;60130;52.250;5.048;2023-03-26T12:50:00;654.3;;;9.6;0.0
72226;BME280;60130;52.250;5.048;2023-03-26T12:55:06;870.7;;;9.7;0.0
72226;BME280;60130;52.250;5.048;2023-03-26T13:00:12;779.3;;;9.8;0.0
72226;BME280;60130;52.250;5.048;2023-03-26T13:05:09;776.5;;;9.9;0.0
72226;BME280;60130;52.250;5.048;2023-03-26T13:15:07;764.8;;;10.0;0.0
72226;BME280;60130;52.250;5.048;2023-03-26T13:20:03;764.4;;;9.9;0.0
72226;BME280;60130;52.250;5.048;2023-03-26T13:25:03;735.5;;;9.8;0.0
72226;BME280;60130;52.250;5.048;2023-03-26T13:30:04;732.5;;;9.9;0.0
72226;BME280;60130;52.250;5.048;2023-03-26T13:35:11;736.9;;;10.2;0.0
72226;BME280;60130;52.250;5.048;2023-03-26T13:40:13;734.5;;;10.3;0.0
72226;BME280;60130;52.250;5.048;2023-03-26T13:45:02;732.9;;;10.2;0.0
72226;BME280;60130;52.250;5.048;2023-03-26T13:50:03;738.1;;;10.0;0.0
72226;BME280;60130;52.250;5.048;2023-03-26T13:55:16;741.1;;;10.0;0.0
72226;BME280;60130;52.250;5.048;2023-03-26T14:00:03;732.5;;;10.0;0.0
72226;BME280;60130;52.250;5.048;2023-03-26T14:05:04;719.3;;;10.0;0.0
72226;BME280;60130;52.250;5.048;2023-03-26T14:10:04;729.2;;;10.2;0.0
72226;BME280;60130;52.250;5.048;2023-03-26T14:15:02;724.9;;;10.1;0.0
72226;BME280;60130;52.250;5.048;2023-03-26T14:25:06;716.7;;;9.7;0.0
72226;BME280;60130;52.250;5.048;2023-03-26T14:35:09;712.4;;;9.6;0.0
72226;BME280;60130;52.250;5.048;2023-03-26T14:40:14;717.7;;;9.7;0.0
72226;BME280;60130;52.250;5.048;2023-03-26T14:45:20;713.4;;;9.7;0.0
72226;BME280;60130;52.250;5.048;2023-03-26T14:50:19;714.8;;;9.6;0.0
72226;BME280;60130;52.250;5.048;2023-03-26T14:55:03;699.2;;;9.3;0.0
72226;BME280;60130;52.250;5.048;2023-03-26T15:10:12;698.5;;;9.0;0.0
72226;BME280;60130;52.250;5.048;2023-03-26T15:20:19;708.4;;;9.2;0.0
72226;BME280;60130;52.250;5.048;2023-03-26T15:25:18;706.9;;;9.2;0.0
72226;BME280;60130;52.250;5.048;2023-03-26T15:30:14;698.1;;;9.3;0.0
72226;BME280;60130;52.250;5.048;2023-03-26T15:45:14;685.6;;;8.9;0.0
72226;BME280;60130;52.250;5.048;2023-03-26T15:50:09;693.1;;;8.7;0.0
72226;BME280;60130;52.250;5.048;2023-03-26T15:55:04;693.5;;;8.7;0.0
72226;BME280;60130;52.250;5.048;2023-03-26T16:00:07;690.7;;;8.7;0.0
72226;BME280;60130;52.250;5.048;2023-03-26T16:05:19;678.1;;;8.5;0.0
72226;BME280;60130;52.250;5.048;2023-03-26T16:10:12;675.0;;;8.4;0.0
72226;BME280;60130;52.250;5.048;2023-03-26T16:15:19;671.5;;;8.3;0.0
72226;BME280;60130;52.250;5.048;2023-03-26T16:20:16;668.8;;;8.3;0.0
72226;BME280;60130;52.250;5.048;2023-03-26T16:25:16;665.2;;;8.2;0.0
72226;BME280;60130;52.250;5.048;2023-03-26T16:30:12;661.4;;;8.1;0.0
72226;BME280;60130;52.250;5.048;2023-03-26T16:35:01;655.7;;;8.3;0.0
72226;BME280;60130;52.250;5.048;2023-03-26T16:45:07;652.8;;;8.3;0.0
72226;BME280;60130;52.250;5.048;2023-03-26T16:50:08;652.6;;;8.1;0.0
72226;BME280;60130;52.250;5.048;2023-03-26T16:55:05;652.5;;;8.0;0.0
72226;BME280;60130;52.250;5.048;2023-03-26T17:00:19;652.5;;;7.9;0.0
72226;BME280;60130;52.250;5.048;2023-03-26T17:05:07;652.6;;;8.0;0.0
72226;BME280;60130;52.250;5.048;2023-03-26T17:10:08;652.5;;;7.9;0.0
72226;BME280;60130;52.250;5.048;2023-03-26T17:15:11;652.4;;;7.8;0.0
72226;BME280;60130;52.250;5.048;2023-03-26T17:20:06;652.3;;;7.8;0.0
72226;BME280;60130;52.250;5.048;2023-03-26T17:25:04;652.3;;;7.7;0.0
72226;BME280;60130;52.250;5.048;2023-03-26T17:30:03;;;;7.7;
72226;BME280;60130;52.250;5.048;2023-03-26T17:35:00;652.3;;;7.7;0.0
72226;BME280;60130;52.250;5.048;2023-03-26T17:45:00;652.2;;;7.6;0.0
72226;BME280;60130;52.250;5.048;2023-03-26T17:50:03;652.0;;;7.4;0.0
72226;BME280;60130;52.250;5.048;2023-03-26T17:55:01;651.8;;;7.3;0.0
72226;BME280;60130;52.250;5.048;2023-03-26T18:00:01;651.8;;;7.2;0.0
72226;BME280;60130;52.250;5.048;2023-03-26T18:05:02;651.9;;;7.3;0.0
72226;BME280;60130;52.250;5.048;2023-03-26T18:10:15;651.9;;;7.3;0.0
72226;BME280;60130;52.250;5.048;2023-03-26T18:15:09;652.1;;;7.4;0.0
72226;BME280;60130;52.250;5.048;2023-03-26T18:20:03;652.0;;;7.4;0.0
72226;BME280;60130;52.250;5.048;2023-03-26T18:25:02;652.1;;;7.4;0.0
72226;BME280;60130;52.250;5.048;2023-03-26T18:30:08;652.1;;;7.4;0.0
72226;BME280;60130;52.250;5.048;2023-03-26T18:35:13;652.0;;;7.3;0.0
72226;BME280;60130;52.250;5.048;2023-03-26T18:40:02;651.9;;;7.3;0.0
72226;BME280;60130;52.250;5.048;2023-03-26T18:45:02;651.8;;;7.1;0.0
72226;BME280;60130;52.250;5.048;2023-03-26T18:50:00;651.7;;;7.1;0.0
72226;BME280;60130;52.250;5.048;2023-03-26T18:55:00;651.6;;;7.0;0.0
72226;BME280;60130;52.250;5.048;2023-03-26T19:00:07;651.6;;;7.0;0.0
72226;BME280;60130;52.250;5.048;2023-03-26T19:05:00;651.6;;;6.9;0.0
72226;BME280;60130;52.250;5.048;2023-03-26T19:10:00;651.7;;;7.0;0.0
72226;BME280;60130;52.250;5.048;2023-03-26T19:15:03;651.6;;;7.0;0.0
72226;BME280;60130;52.250;5.048;2023-03-26T19:20:00;651.5;;;6.8;0.0
72226;BME280;60130;52.250;5.048;2023-03-26T19:25:01;651.4;;;6.8;0.0
72226;BME280;60130;52.250;5.048;2023-03-26T19:30:00;651.3;;;6.7;0.0
72226;BME280;60130;52.250;5.048;2023-03-26T19:35:00;651.5;;;6.8;0.0
72226;BME280;60130;52.250;5.048;2023-03-26T19:40:02;651.5;;;6.9;0.0
72226;BME280;60130;52.250;5.048;2023-03-26T19:45:02;651.6;;;6.9;0.0
72226;BME280;60130;52.250;5.048;2023-03-26T19:50:12;651.6;;;6.9;0.0
72226;BME280;60130;52.250;5.048;2023-03-26T19:55:02;651.5;;;6.9;0.0
72226;BME280;60130;52.250;5.048;2023-03-26T20:00:01;651.5;;;6.9;0.0
72226;BME280;60130;52.250;5.048;2023-03-26T20:05:00;651.5;;;6.9;0.0
72226;BME280;60130;52.250;5.048;2023-03-26T20:10:00;651.5;;;6.8;0.0
72226;BME280;60130;52.250;5.048;2023-03-26T20:15:00;651.5;;;6.8;0.0
72226;BME280;60130;52.250;5.048;2023-03-26T20:20:00;651.4;;;6.8;0.0
72226;BME280;60130;52.250;5.048;2023-03-26T20:25:00;651.4;;;6.7;0.0
72226;BME280;60130;52.250;5.048;2023-03-26T20:30:00;651.3;;;6.7;0.0
72226;BME280;60130;52.250;5.048;2023-03-26T20:35:00;651.4;;;6.7;0.0
72226;BME280;60130;52.250;5.048;2023-03-26T20:40:00;651.3;;;6.7;0.0
72226;BME280;60130;52.250;5.048;2023-03-26T20:45:00;651.2;;;6.5;0.0
72226;BME280;60130;52.250;5.048;2023-03-26T20:50:00;651.1;;;6.4;0.0
72226;BME280;60130;52.250;5.048;2023-03-26T20:55:00;650.9;;;6.2;0.0
72226;BME280;60130;52.250;5.048;2023-03-26T21:00:00;650.6;;;6.0;0.0
72226;BME280;60130;52.250;5.048;2023-03-26T21:05:00;650.5;;;5.9;0.0
72226;BME280;60130;52.250;5.048;2023-03-26T21:10:00;650.3;;;5.7;0.0
72226;BME280;60130;52.250;5.048;2023-03-26T21:15:00;650.4;;;5.8;0.0
72226;BME280;60130;52.250;5.048;2023-03-26T21:20:00;650.4;;;5.8;0.0
72226;BME280;60130;52.250;5.048;2023-03-26T21:25:07;650.4;;;5.8;0.0
72226;BME280;60130;52.250;5.048;2023-03-26T21:30:00;650.4;;;5.8;0.0
72226;BME280;60130;52.250;5.048;2023-03-26T21:35:00;650.4;;;5.7;0.0
72226;BME280;60130;52.250;5.048;2023-03-26T21:40:00;650.4;;;5.8;0.0
72226;BME280;60130;52.250;5.048;2023-03-26T21:45:00;650.0;;;5.4;0.0
72226;BME280;60130;52.250;5.048;2023-03-26T21:50:00;649.7;;;5.1;0.0
72226;BME280;60130;52.250;5.048;2023-03-26T21:55:00;649.7;;;5.0;0.0
72226;BME280;60130;52.250;5.048;2023-03-26T22:00:05;649.6;;;5.1;0.0
72226;BME280;60130;52.250;5.048;2023-03-26T22:05:03;649.8;;;5.2;0.0
72226;BME280;60130;52.250;5.048;2023-03-26T22:10:00;649.8;;;5.3;0.0
72226;BME280;60130;52.250;5.048;2023-03-26T22:15:00;649.8;;;5.3;0.0
72226;BME280;60130;52.250;5.048;2023-03-26T22:20:00;649.8;;;5.3;0.0
72226;BME280;60130;52.250;5.048;2023-03-26T22:25:00;649.8;;;5.2;0.0
72226;BME280;60130;52.250;5.048;2023-03-26T22:30:00;649.7;;;5.2;0.0
72226;BME280;60130;52.250;5.048;2023-03-26T22:35:00;649.8;;;5.3;0.0
72226;BME280;60130;52.250;5.048;2023-03-26T22:40:00;649.9;;;5.3;0.0
72226;BME280;60130;52.250;5.048;2023-03-26T22:45:00;650.0;;;5.4;0.0
72226;BME280;60130;52.250;5.048;2023-03-26T22:50:00;650.0;;;5.4;0.0
72226;BME280;60130;52.250;5.048;2023-03-26T22:55:00;649.8;;;5.2;0.0
72226;BME280;60130;52.250;5.048;2023-03-26T23:00:00;649.6;;;5.0;0.0
72226;BME280;60130;52.250;5.048;2023-03-26T23:05:00;649.5;;;4.9;0.0
72226;BME280;60130;52.250;5.048;2023-03-26T23:10:00;649.4;;;4.9;0.0
72226;BME280;60130;52.250;5.048;2023-03-26T23:15:00;649.3;;;4.8;0.0
72226;BME280;60130;52.250;5.048;2023-03-26T23:20:00;649.4;;;4.8;0.0
72226;BME280;60130;52.250;5.048;2023-03-26T23:25:00;649.4;;;4.8;0.0
72226;BME280;60130;52.250;5.048;2023-03-26T23:30:00;649.6;;;5.0;0.0
72226;BME280;60130;52.250;5.048;2023-03-26T23:35:00;649.7;;;5.1;0.0
72226;BME280;60130;52.250;5.048;2023-03-26T23:40:00;649.8;;;5.2;0.0
72226;BME280;60130;52.250;5.048;2023-03-26T23:45:00;649.8;;;5.2;0.0
72226;BME280;60130;52.250;5.048;2023-03-26T23:50:01;649.9;;;5.3;0.0
72226;BME280;60130;52.250;5.048;2023-03-26T23:55:00;650.0;;;5.4;0.0
